createdAt,value
2017-10-05T00:00:17.245Z,1
2017-10-05T00:02:17.098Z,1.4
2017-10-05T00:04:16.990Z,1.6
2017-10-05T00:06:17.843Z,1.3
2017-10-05T00:08:16.756Z,1.7
2017-10-05T00:10:17.621Z,1.3
2017-10-05T00:14:17.424Z,1.5
2017-10-05T00:16:17.243Z,2
2017-10-05T00:18:17.139Z,1.7
2017-10-05T00:20:17.017Z,1.6
2017-10-05T00:22:16.905Z,1.7
2017-10-05T00:24:16.786Z,1.4
2017-10-05T00:26:17.663Z,1.3
2017-10-05T00:28:17.554Z,1
2017-10-05T00:30:17.452Z,1.3
2017-10-05T00:32:17.297Z,1.4
2017-10-05T00:34:17.183Z,2.2
2017-10-05T00:36:18.084Z,1.1
2017-10-05T00:38:16.948Z,1.7
2017-10-05T00:40:17.838Z,1.1
2017-10-05T00:42:16.748Z,1.3
2017-10-05T00:44:16.591Z,1.2
2017-10-05T00:46:17.491Z,1.5
2017-10-05T00:48:17.359Z,1.5
2017-10-05T00:50:17.231Z,1.4
2017-10-05T00:52:17.105Z,1.4
2017-10-05T00:54:17.003Z,1.4
2017-10-05T00:56:17.855Z,1.3
2017-10-05T00:58:16.763Z,1.2
2017-10-05T01:00:16.620Z,1.3
2017-10-05T01:02:17.531Z,1.5
2017-10-05T01:04:17.375Z,1.5
2017-10-05T01:06:17.282Z,1.1
2017-10-05T01:08:17.166Z,1.4
2017-10-05T01:10:18.032Z,1.1
2017-10-05T01:12:16.953Z,0.9
2017-10-05T01:14:16.812Z,1.4
2017-10-05T01:16:17.705Z,1.2
2017-10-05T01:18:16.603Z,1.4
2017-10-05T01:20:17.450Z,0.8
2017-10-05T01:22:17.346Z,1
2017-10-05T01:24:17.268Z,1
2017-10-05T01:26:17.115Z,1.4
2017-10-05T01:28:17.006Z,1
2017-10-05T01:30:16.892Z,0.9
2017-10-05T01:32:16.765Z,1.3
2017-10-05T01:34:16.684Z,1.3
2017-10-05T01:36:17.564Z,1.8
2017-10-05T01:38:17.439Z,1.2
2017-10-05T01:40:17.328Z,1.3
2017-10-05T01:42:17.224Z,1
2017-10-05T01:44:17.076Z,1.4
2017-10-05T01:46:16.973Z,1.7
2017-10-05T01:48:16.915Z,1.7
2017-10-05T01:50:16.776Z,1.2
2017-10-05T01:52:16.660Z,1.2
2017-10-05T01:54:17.572Z,1.8
2017-10-05T01:56:17.432Z,1.3
2017-10-05T02:00:17.212Z,1.6
2017-10-05T02:02:17.137Z,1
2017-10-05T02:04:17.030Z,1.5
2017-10-05T02:06:16.928Z,1.4
2017-10-05T02:08:16.840Z,1.2
2017-10-05T02:10:17.737Z,1.7
2017-10-05T02:12:17.663Z,1.3
2017-10-05T02:14:17.516Z,1.4
2017-10-05T02:16:17.411Z,1.6
2017-10-05T02:18:17.347Z,1.5
2017-10-05T02:20:17.220Z,1.7
2017-10-05T02:22:17.135Z,1.6
2017-10-05T02:24:17.040Z,2
2017-10-05T02:26:17.888Z,1.9
2017-10-05T02:28:16.769Z,1.9
2017-10-05T02:30:16.655Z,1.5
2017-10-05T02:32:17.526Z,1.5
2017-10-05T02:34:17.395Z,1.5
2017-10-05T02:36:18.275Z,1.2
2017-10-05T02:38:17.203Z,1.4
2017-10-05T02:40:17.060Z,1.8
2017-10-05T02:42:16.946Z,1.4
2017-10-05T02:44:16.828Z,1.8
2017-10-05T02:46:17.760Z,2
2017-10-05T02:48:16.583Z,2
2017-10-05T02:50:17.490Z,1.9
2017-10-05T02:52:17.412Z,1.4
2017-10-05T02:54:17.303Z,1.6
2017-10-05T02:56:17.140Z,1.9
2017-10-05T02:58:17.060Z,1.7
2017-10-05T03:00:16.905Z,1.6
2017-10-05T03:04:17.704Z,1.7
2017-10-05T03:06:17.545Z,1.6
2017-10-05T03:08:17.451Z,1.7
2017-10-05T03:10:17.309Z,1.9
2017-10-05T03:12:17.217Z,1.7
2017-10-05T03:14:17.112Z,1.5
2017-10-05T03:16:17.009Z,2
2017-10-05T03:18:16.899Z,1.6
2017-10-05T03:20:17.118Z,1.5
2017-10-05T03:22:17.676Z,1.7
2017-10-05T03:24:17.584Z,1.5
2017-10-05T03:26:17.526Z,1.5
2017-10-05T03:28:17.401Z,1.7
2017-10-05T03:30:17.288Z,1.5
2017-10-05T03:32:17.224Z,1.6
2017-10-05T03:34:17.084Z,1.6
2017-10-05T03:36:16.993Z,1.3
2017-10-05T03:38:16.932Z,1.4
2017-10-05T03:40:17.815Z,1.3
2017-10-05T03:42:16.721Z,1.4
2017-10-05T03:44:17.654Z,1.6
2017-10-05T03:46:17.524Z,1.7
2017-10-05T03:48:17.441Z,1.6
2017-10-05T03:50:17.344Z,1.6
2017-10-05T03:52:17.202Z,1.4
2017-10-05T03:54:17.124Z,2.2
2017-10-05T03:56:17.041Z,1.3
2017-10-05T03:58:16.910Z,1.8
2017-10-05T04:00:16.823Z,1.3
2017-10-05T04:02:16.749Z,1.5
2017-10-05T04:04:16.614Z,1.3
2017-10-05T04:06:17.500Z,1.3
2017-10-05T04:08:17.423Z,1.4
2017-10-05T04:10:17.279Z,1.8
2017-10-05T04:12:17.184Z,1.4
2017-10-05T04:14:17.082Z,1.2
2017-10-05T04:16:17.952Z,1.3
2017-10-05T04:18:16.854Z,1.4
2017-10-05T04:20:16.737Z,1.3
2017-10-05T04:22:17.602Z,1.9
2017-10-05T04:26:17.371Z,2.3
2017-10-05T04:28:17.263Z,1.7
2017-10-05T04:30:17.119Z,1.4
2017-10-05T04:32:17.038Z,1.4
2017-10-05T04:34:16.876Z,1.5
2017-10-05T04:36:16.781Z,1.5
2017-10-05T04:38:16.676Z,1.5
2017-10-05T04:40:17.518Z,1.9
2017-10-05T04:42:17.394Z,1.3
2017-10-05T04:44:17.311Z,1.3
2017-10-05T04:46:17.214Z,1.7
2017-10-05T04:48:17.046Z,1.7
2017-10-05T04:50:17.920Z,1.8
2017-10-05T04:52:16.833Z,1.2
2017-10-05T04:54:16.671Z,1.6
2017-10-05T04:56:17.536Z,2.1
2017-10-05T04:58:17.414Z,1.9
2017-10-05T05:00:17.295Z,1.8
2017-10-05T05:02:17.162Z,2
2017-10-05T05:04:17.019Z,1.7
2017-10-05T05:06:16.950Z,1.5
2017-10-05T05:08:16.779Z,1.7
2017-10-05T05:10:17.644Z,1.6
2017-10-05T05:12:17.574Z,1.7
2017-10-05T05:14:17.418Z,1.9
2017-10-05T05:16:17.285Z,1.5
2017-10-05T05:18:17.184Z,2
2017-10-05T05:20:17.017Z,1.8
2017-10-05T05:22:16.905Z,1.8
2017-10-05T05:24:16.811Z,1.7
2017-10-05T05:26:17.627Z,2
2017-10-05T05:28:17.524Z,1.7
2017-10-05T05:30:21.390Z,2
2017-10-05T05:32:17.232Z,1.6
2017-10-05T05:34:17.106Z,1.8
2017-10-05T05:36:17.950Z,2
2017-10-05T05:38:16.829Z,2
2017-10-05T05:40:17.666Z,2
2017-10-05T05:42:17.537Z,2.8
2017-10-05T05:46:17.262Z,2.1
2017-10-05T05:50:17.981Z,2.8
2017-10-05T05:52:16.881Z,2.2
2017-10-05T05:54:16.692Z,2.2
2017-10-05T05:56:17.554Z,2
2017-10-05T05:58:17.438Z,2.4
2017-10-05T06:00:17.292Z,2.6
2017-10-05T06:02:17.172Z,2
2017-10-05T06:04:17.038Z,2.5
2017-10-05T06:06:16.873Z,2.3
2017-10-05T06:08:16.736Z,2.1
2017-10-05T06:10:17.606Z,2.1
2017-10-05T06:12:17.442Z,1.9
2017-10-05T06:14:17.316Z,2.2
2017-10-05T06:16:17.173Z,1.9
2017-10-05T06:18:21.073Z,2.3
2017-10-05T06:20:16.910Z,1.6
2017-10-05T06:22:16.806Z,2.5
2017-10-05T06:24:16.638Z,2.1
2017-10-05T06:26:17.484Z,2
2017-10-05T06:28:17.406Z,2.2
2017-10-05T06:30:17.239Z,3.1
2017-10-05T06:32:17.098Z,2.1
2017-10-05T06:34:17.015Z,2
2017-10-05T06:36:17.851Z,1.9
2017-10-05T06:38:16.729Z,1.7
2017-10-05T06:40:17.591Z,1.8
2017-10-05T06:42:17.462Z,1.6
2017-10-05T06:44:17.354Z,1.9
2017-10-05T06:46:18.267Z,2
2017-10-05T06:48:17.089Z,1.6
2017-10-05T06:50:16.953Z,1.6
2017-10-05T06:52:16.856Z,1.4
2017-10-05T06:54:16.692Z,1.2
2017-10-05T06:56:17.549Z,1.7
2017-10-05T06:58:17.460Z,1.3
2017-10-05T07:00:17.277Z,1.7
2017-10-05T07:02:17.142Z,1.5
2017-10-05T07:04:17.049Z,1.9
2017-10-05T07:06:16.903Z,1.8
2017-10-05T07:08:16.778Z,1.2
2017-10-05T07:10:17.642Z,1.4
2017-10-05T07:12:17.536Z,1.5
2017-10-05T07:14:17.377Z,1.3
2017-10-05T07:16:17.269Z,1.3
2017-10-05T07:18:18.115Z,1.5
2017-10-05T07:20:17.037Z,1.1
2017-10-05T07:22:16.907Z,0.7
2017-10-05T07:24:16.755Z,1
2017-10-05T07:26:17.644Z,1
2017-10-05T07:28:17.554Z,1.2
2017-10-05T07:30:17.401Z,1.3
2017-10-05T07:32:17.286Z,1
2017-10-05T07:34:17.185Z,0.9
2017-10-05T07:36:18.055Z,1.1
2017-10-05T07:38:16.916Z,1.1
2017-10-05T07:40:17.788Z,0.8
2017-10-05T07:42:16.655Z,1
2017-10-05T07:44:17.532Z,0.8
2017-10-05T07:46:17.408Z,1.2
2017-10-05T07:48:17.282Z,0.9
2017-10-05T07:50:17.150Z,0.8
2017-10-05T07:52:17.042Z,0.9
2017-10-05T07:54:16.900Z,0.9
2017-10-05T07:56:17.767Z,0.8
2017-10-05T07:58:16.652Z,0.8
2017-10-05T08:00:17.558Z,0.8
2017-10-05T08:02:17.420Z,0.7
2017-10-05T08:04:17.288Z,1
2017-10-05T08:06:17.186Z,0.6
2017-10-05T08:08:17.078Z,1.1
2017-10-05T08:10:17.913Z,0.9
2017-10-05T08:12:16.828Z,1.5
2017-10-05T08:14:16.662Z,0.7
2017-10-05T08:16:17.534Z,0.5
2017-10-05T08:18:17.476Z,0.7
2017-10-05T08:20:17.309Z,0.4
2017-10-05T08:22:17.212Z,0.4
2017-10-05T08:24:17.117Z,0.4
2017-10-05T08:26:17.990Z,0.4
2017-10-05T08:28:16.864Z,0.5
2017-10-05T08:30:16.764Z,0.4
2017-10-05T08:32:16.678Z,0.6
2017-10-05T08:34:17.561Z,0.6
2017-10-05T08:36:17.442Z,0.4
2017-10-05T08:38:17.341Z,0.4
2017-10-05T08:40:17.220Z,0.4
2017-10-05T08:42:17.151Z,0.7
2017-10-05T08:44:16.997Z,0.5
2017-10-05T08:46:17.857Z,0.4
2017-10-05T08:48:16.754Z,0.5
2017-10-05T08:50:20.600Z,0.7
2017-10-05T08:52:17.460Z,0.6
2017-10-05T08:54:17.342Z,0.4
2017-10-05T08:56:18.194Z,0.6
2017-10-05T08:58:17.048Z,0.5
2017-10-05T09:00:16.919Z,0.6
2017-10-05T09:02:16.783Z,0.5
2017-10-05T09:04:16.663Z,0.9
2017-10-05T09:06:17.558Z,0.4
2017-10-05T09:08:17.406Z,0.5
2017-10-05T09:10:17.322Z,0.7
2017-10-05T09:12:17.206Z,0.6
2017-10-05T09:14:17.050Z,0.4
2017-10-05T09:16:17.899Z,0.4
2017-10-05T09:18:16.813Z,0.4
2017-10-05T09:20:16.681Z,0.5
2017-10-05T09:22:17.560Z,0.4
2017-10-05T09:24:17.463Z,0.4
2017-10-05T09:26:17.321Z,0.6
2017-10-05T09:28:17.169Z,0.5
2017-10-05T09:30:17.072Z,0.4
2017-10-05T09:32:16.918Z,0.8
2017-10-05T09:34:16.831Z,0.8
2017-10-05T09:36:17.715Z,0.6
2017-10-05T09:38:17.581Z,0.7
2017-10-05T09:40:17.471Z,0.7
2017-10-05T09:42:17.393Z,0.5
2017-10-05T09:44:17.242Z,0.5
2017-10-05T09:46:17.125Z,0.6
2017-10-05T09:48:17.044Z,0.7
2017-10-05T09:50:16.895Z,0.5
2017-10-05T09:52:16.755Z,0.6
2017-10-05T09:54:17.688Z,0.5
2017-10-05T09:56:17.527Z,0.6
2017-10-05T09:58:17.434Z,0.5
2017-10-05T10:00:17.294Z,0.3
2017-10-05T10:02:17.160Z,0.5
2017-10-05T10:04:17.042Z,0.6
2017-10-05T10:06:17.931Z,0.6
2017-10-05T10:08:16.800Z,0.5
2017-10-05T10:10:17.681Z,0.4
2017-10-05T10:12:17.551Z,0.6
2017-10-05T10:14:17.448Z,0.6
2017-10-05T10:16:17.290Z,0.3
2017-10-05T10:18:17.166Z,0.5
2017-10-05T10:20:17.072Z,0.4
2017-10-05T10:22:16.916Z,0.4
2017-10-05T10:24:16.818Z,0.5
2017-10-05T10:26:17.717Z,0.7
2017-10-05T10:28:17.565Z,0.7
2017-10-05T10:30:17.446Z,0.7
2017-10-05T10:32:17.360Z,0.5
2017-10-05T10:34:17.223Z,0.9
2017-10-05T10:36:18.105Z,0.4
2017-10-05T10:38:17.025Z,0.4
2017-10-05T10:40:17.892Z,0.5
2017-10-05T10:42:16.764Z,0.4
2017-10-05T10:44:16.667Z,0.3
2017-10-05T10:46:17.541Z,0.4
2017-10-05T10:48:17.408Z,0.3
2017-10-05T10:50:17.301Z,0.3
2017-10-05T10:52:17.200Z,0.3
2017-10-05T10:54:17.085Z,0.7
2017-10-05T10:56:17.006Z,0.6
2017-10-05T10:58:16.886Z,0.3
2017-10-05T11:00:16.746Z,0.4
2017-10-05T11:02:17.665Z,0.2
2017-10-05T11:04:17.526Z,0.3
2017-10-05T11:06:17.433Z,0.3
2017-10-05T11:08:17.334Z,0.2
2017-10-05T11:10:17.186Z,0.2
2017-10-05T11:12:17.077Z,0.2
2017-10-05T11:14:16.983Z,0.3
2017-10-05T11:16:17.822Z,0.2
2017-10-05T11:18:16.760Z,0.4
2017-10-05T11:20:16.619Z,0.2
2017-10-05T11:22:17.481Z,0.1
2017-10-05T11:24:17.355Z,0.2
2017-10-05T11:26:17.247Z,0.3
2017-10-05T11:28:17.125Z,0.2
2017-10-05T11:30:17.001Z,0.2
2017-10-05T11:32:16.862Z,0.1
2017-10-05T11:34:16.770Z,0.2
2017-10-05T11:36:17.662Z,0.2
2017-10-05T11:38:17.535Z,0.1
2017-10-05T11:40:17.412Z,0.1
2017-10-05T11:42:17.344Z,0.3
2017-10-05T11:44:17.197Z,0.2
2017-10-05T11:46:17.075Z,0.3
2017-10-05T11:48:17.026Z,0.2
2017-10-05T11:50:16.920Z,0.2
2017-10-05T11:52:16.799Z,0.1
2017-10-05T11:54:16.724Z,0.2
2017-10-05T11:56:17.581Z,0.2
2017-10-05T11:58:17.479Z,0.2
2017-10-05T12:00:17.381Z,0.2
2017-10-05T12:02:17.299Z,0.3
2017-10-05T12:04:17.195Z,0.2
2017-10-05T12:06:18.147Z,0.2
2017-10-05T12:08:17.037Z,0.2
2017-10-05T12:10:17.943Z,0.2
2017-10-05T12:12:16.853Z,0.2
2017-10-05T12:14:16.792Z,0.5
2017-10-05T12:16:17.756Z,0.3
2017-10-05T12:18:16.656Z,0.3
2017-10-05T12:20:17.574Z,0.3
2017-10-05T12:22:17.528Z,0.3
2017-10-05T12:24:17.437Z,0.4
2017-10-05T12:26:17.355Z,0.3
2017-10-05T12:28:17.340Z,0.4
2017-10-05T12:30:17.238Z,0.2
2017-10-05T12:32:17.192Z,0.4
2017-10-05T12:34:17.158Z,0.4
2017-10-05T12:36:17.069Z,0.4
2017-10-05T12:38:17.018Z,0.4
2017-10-05T12:40:17.916Z,0.4
2017-10-05T12:42:16.867Z,0.5
2017-10-05T12:44:16.829Z,0.3
2017-10-05T12:46:17.764Z,0.3
2017-10-05T12:48:16.682Z,0.6
2017-10-05T12:50:17.626Z,0.5
2017-10-05T12:52:17.573Z,0.4
2017-10-05T12:54:17.514Z,1
2017-10-05T12:56:17.423Z,0.4
2017-10-05T12:58:17.372Z,0.6
2017-10-05T13:00:17.298Z,0.3
2017-10-05T13:02:17.227Z,0.4
2017-10-05T13:04:17.207Z,0.4
2017-10-05T13:06:17.132Z,0.5
2017-10-05T13:08:17.038Z,0.9
2017-10-05T13:10:17.988Z,0.9
2017-10-05T13:12:16.918Z,0.6
2017-10-05T13:14:16.854Z,0.3
2017-10-05T13:16:17.824Z,0.4
2017-10-05T13:18:16.735Z,0.4
2017-10-05T13:20:17.648Z,0.5
2017-10-05T13:22:17.626Z,0.3
2017-10-05T13:24:17.540Z,0.3
2017-10-05T13:26:17.496Z,0.4
2017-10-05T13:28:17.438Z,0.4
2017-10-05T13:30:17.335Z,0.3
2017-10-05T13:32:17.287Z,0.2
2017-10-05T13:34:17.256Z,0.2
2017-10-05T13:36:17.152Z,0.3
2017-10-05T13:38:17.107Z,0.3
2017-10-05T13:40:18.044Z,0.3
2017-10-05T13:42:16.971Z,0.4
2017-10-05T13:44:16.879Z,0.2
2017-10-05T13:46:16.819Z,0.3
2017-10-05T13:48:16.725Z,0.3
2017-10-05T13:50:17.658Z,0.7
2017-10-05T13:52:17.615Z,0.4
2017-10-05T13:54:17.485Z,0.4
2017-10-05T13:56:17.426Z,0.7
2017-10-05T13:58:17.356Z,0.6
2017-10-05T14:00:17.246Z,1
2017-10-05T14:02:17.165Z,0.2
2017-10-05T14:04:17.095Z,0.2
2017-10-05T14:06:17.969Z,0.4
2017-10-05T14:08:16.868Z,0.3
2017-10-05T14:10:17.730Z,0.5
2017-10-05T14:12:17.617Z,0.1
2017-10-05T14:14:17.498Z,0.2
2017-10-05T14:16:17.361Z,0.3
2017-10-05T14:18:18.192Z,0.3
2017-10-05T14:20:17.070Z,0.2
2017-10-05T14:22:16.935Z,0.5
2017-10-05T14:24:16.778Z,0.2
2017-10-05T14:26:17.620Z,0.2
2017-10-05T14:28:17.483Z,0.1
2017-10-05T14:30:17.309Z,0.1
2017-10-05T14:32:17.133Z,0.2
2017-10-05T14:34:20.918Z,0.2
2017-10-05T14:36:17.761Z,0.2
2017-10-05T14:38:20.541Z,0.3
2017-10-05T14:40:17.355Z,0.4
2017-10-05T14:42:21.160Z,0.2
2017-10-05T14:44:17.969Z,0.3
2017-10-05T14:46:17.772Z,0.2
2017-10-05T14:48:20.525Z,0.2
2017-10-05T14:50:18.329Z,0.2
2017-10-05T14:52:21.127Z,0.2
2017-10-05T14:54:20.908Z,0.2
2017-10-05T14:56:17.718Z,0.3
2017-10-05T14:58:21.506Z,0.2
2017-10-05T15:00:18.315Z,0.7
2017-10-05T15:02:21.095Z,0.2
2017-10-05T15:04:20.895Z,0.4
2017-10-05T15:06:17.690Z,0.3
2017-10-05T15:08:21.487Z,0.2
2017-10-05T15:10:17.291Z,0.3
2017-10-05T15:12:18.087Z,0.2
2017-10-05T15:14:17.857Z,0.3
2017-10-05T15:16:16.702Z,0.2
2017-10-05T15:18:17.442Z,0.3
2017-10-05T15:20:18.224Z,0.7
2017-10-05T15:22:17.988Z,0.2
2017-10-05T15:24:17.794Z,0.3
2017-10-05T15:26:17.571Z,0.1
2017-10-05T15:28:21.331Z,0.2
2017-10-05T15:30:18.139Z,0.2
2017-10-05T15:32:20.920Z,0.1
2017-10-05T15:34:20.707Z,0.1
2017-10-05T15:36:17.505Z,0.1
2017-10-05T15:38:21.297Z,0.1
2017-10-05T15:40:17.107Z,0.2
2017-10-05T15:42:20.876Z,0.4
2017-10-05T15:44:20.664Z,0.2
2017-10-05T15:46:17.460Z,0.1
2017-10-05T15:48:21.250Z,0.3
2017-10-05T15:50:18.042Z,0.2
2017-10-05T15:52:17.835Z,0.1
2017-10-05T15:54:17.615Z,0.1
2017-10-05T15:56:17.406Z,0.3
2017-10-05T15:58:18.170Z,0.2
2017-10-05T16:00:20.933Z,0.1
2017-10-05T16:02:16.766Z,0.5
2017-10-05T16:04:17.552Z,0.2
2017-10-05T16:06:17.328Z,0.2
2017-10-05T16:08:21.148Z,0.1
2017-10-05T16:10:17.951Z,0.4
2017-10-05T16:12:17.736Z,0.1
2017-10-05T16:14:17.523Z,0.2
2017-10-05T16:16:17.317Z,0.1
2017-10-05T16:18:18.109Z,0.3
2017-10-05T16:20:20.908Z,0.3
2017-10-05T16:22:16.711Z,0.1
2017-10-05T16:24:21.473Z,0.3
2017-10-05T16:26:17.309Z,0.4
2017-10-05T16:28:21.076Z,0.2
2017-10-05T16:30:17.930Z,0.8
2017-10-05T16:32:20.707Z,0.5
2017-10-05T16:34:21.446Z,0.3
2017-10-05T16:36:17.293Z,0.2
2017-10-05T16:38:17.092Z,0.3
2017-10-05T16:40:17.870Z,0.5
2017-10-05T16:42:16.710Z,0.3
2017-10-05T16:44:17.506Z,0.3
2017-10-05T16:46:17.292Z,0.4
2017-10-05T16:48:17.144Z,0.2
2017-10-05T16:50:20.877Z,0.2
2017-10-05T16:52:16.754Z,0.2
2017-10-05T16:54:17.523Z,0.2
2017-10-05T16:56:17.315Z,0.5
2017-10-05T16:58:17.127Z,0.4
2017-10-05T17:00:16.938Z,0.6
2017-10-05T17:02:16.753Z,0.5
2017-10-05T17:04:16.571Z,0.3
2017-10-05T17:06:17.422Z,0.2
2017-10-05T17:08:17.237Z,0.3
2017-10-05T17:10:17.999Z,0.5
2017-10-05T17:12:16.869Z,0.3
2017-10-05T17:14:17.672Z,0.5
2017-10-05T17:16:17.464Z,0.3
2017-10-05T17:18:18.294Z,0.3
2017-10-05T17:20:21.066Z,0.3
2017-10-05T17:22:16.906Z,0.4
2017-10-05T17:24:16.738Z,0.5
2017-10-05T17:26:17.515Z,0.4
2017-10-05T17:28:17.338Z,0.2
2017-10-05T17:30:17.140Z,0.4
2017-10-05T17:32:16.958Z,0.2
2017-10-05T17:34:16.777Z,0.5
2017-10-05T17:36:17.623Z,0.2
2017-10-05T17:38:18.427Z,0.4
2017-10-05T17:40:17.226Z,0.3
2017-10-05T17:42:17.061Z,0.6
2017-10-05T17:44:17.866Z,0.6
2017-10-05T17:46:17.687Z,0.4
2017-10-05T17:48:21.485Z,0.3
2017-10-05T17:50:17.341Z,0.5
2017-10-05T17:52:21.149Z,0.9
2017-10-05T17:54:17.009Z,0.3
2017-10-05T17:56:17.815Z,0.4
2017-10-05T17:58:16.639Z,0.4
2017-10-05T18:00:21.457Z,0.3
2017-10-05T18:02:21.272Z,0.4
2017-10-05T18:04:18.106Z,0.2
2017-10-05T18:06:17.934Z,0.5
2017-10-05T18:08:16.754Z,0.3
2017-10-05T18:10:17.625Z,0.4
2017-10-05T18:12:17.455Z,0.5
2017-10-05T18:14:21.269Z,0.3
2017-10-05T18:16:18.098Z,0.6
2017-10-05T18:18:17.950Z,0.2
2017-10-05T18:20:16.827Z,0.3
2017-10-05T18:22:20.612Z,0.4
2017-10-05T18:24:17.454Z,0.2
2017-10-05T18:26:17.319Z,0.3
2017-10-05T18:28:17.157Z,0.4
2017-10-05T18:30:17.960Z,0.6
2017-10-05T18:32:16.816Z,0.4
2017-10-05T18:34:16.644Z,0.6
2017-10-05T18:36:17.470Z,0.6
2017-10-05T18:38:17.312Z,0.3
2017-10-05T18:40:17.154Z,0.5
2017-10-05T18:42:20.965Z,0.6
2017-10-05T18:44:16.810Z,0.7
2017-10-05T18:46:16.636Z,0.5
2017-10-05T18:48:17.462Z,0.3
2017-10-05T18:50:21.292Z,0.6
2017-10-05T18:52:17.124Z,0.5
2017-10-05T18:54:20.930Z,0.7
2017-10-05T18:56:17.792Z,0.6
2017-10-05T18:58:17.599Z,0.4
2017-10-05T19:00:17.454Z,0.5
2017-10-05T19:02:21.259Z,0.3
2017-10-05T19:04:17.111Z,0.7
2017-10-05T19:06:17.930Z,0.8
2017-10-05T19:08:16.781Z,0.4
2017-10-05T19:10:17.571Z,0.4
2017-10-05T19:12:17.406Z,0.6
2017-10-05T19:14:17.263Z,0.5
2017-10-05T19:16:17.079Z,0.6
2017-10-05T19:18:17.866Z,0.7
2017-10-05T19:20:16.753Z,0.4
2017-10-05T19:22:16.576Z,0.7
2017-10-05T19:24:17.386Z,0.6
2017-10-05T19:26:17.248Z,0.6
2017-10-05T19:28:17.078Z,0.6
2017-10-05T19:30:20.877Z,0.8
2017-10-05T19:32:16.763Z,0.6
2017-10-05T19:34:16.570Z,0.4
2017-10-05T19:36:17.419Z,1.3
2017-10-05T19:38:17.269Z,0.5
2017-10-05T19:40:17.081Z,0.5
2017-10-05T19:42:16.915Z,0.4
2017-10-05T19:44:16.798Z,0.6
2017-10-05T19:46:17.656Z,0.5
2017-10-05T19:48:17.469Z,0.8
2017-10-05T19:50:17.308Z,0.5
2017-10-05T19:52:17.148Z,0.6
2017-10-05T19:54:17.020Z,0.7
2017-10-05T19:56:16.884Z,0.5
2017-10-05T19:58:16.710Z,0.5
2017-10-05T20:00:17.542Z,0.9
2017-10-05T20:02:17.407Z,1
2017-10-05T20:04:17.241Z,0.6
2017-10-05T20:06:17.083Z,0.7
2017-10-05T20:08:20.897Z,0.9
2017-10-05T20:10:17.743Z,1
2017-10-05T20:12:16.564Z,0.6
2017-10-05T20:14:17.427Z,1.2
2017-10-05T20:16:17.228Z,1.2
2017-10-05T20:18:18.053Z,0.6
2017-10-05T20:20:20.859Z,0.5
2017-10-05T20:22:16.696Z,0.9
2017-10-05T20:24:17.524Z,0.8
2017-10-05T20:26:21.360Z,0.6
2017-10-05T20:28:21.180Z,0.8
2017-10-05T20:30:17.019Z,0.6
2017-10-05T20:32:16.864Z,0.9
2017-10-05T20:34:16.734Z,0.9
2017-10-05T20:36:17.533Z,0.6
2017-10-05T20:38:17.363Z,0.8
2017-10-05T20:40:17.207Z,0.8
2017-10-05T20:42:17.041Z,0.7
2017-10-05T20:44:20.872Z,1.3
2017-10-05T20:46:17.688Z,0.7
2017-10-05T20:48:21.502Z,1.1
2017-10-05T20:50:17.340Z,1
2017-10-05T20:52:17.167Z,0.8
2017-10-05T20:54:16.991Z,0.6
2017-10-05T20:56:17.832Z,0.8
2017-10-05T20:58:17.620Z,0.7
2017-10-05T21:00:21.414Z,1
2017-10-05T21:02:17.291Z,0.7
2017-10-05T21:04:17.121Z,0.8
2017-10-05T21:06:16.961Z,0.9
2017-10-05T21:08:16.800Z,0.5
2017-10-05T21:10:17.587Z,0.9
2017-10-05T21:12:17.444Z,0.9
2017-10-05T21:14:17.311Z,0.9
2017-10-05T21:16:17.141Z,1.2
2017-10-05T21:18:17.980Z,1.6
2017-10-05T21:20:16.819Z,1.1
2017-10-05T21:22:16.673Z,1.7
2017-10-05T21:24:18.466Z,1
2017-10-05T21:26:17.323Z,0.8
2017-10-05T21:28:18.143Z,0.7
2017-10-05T21:30:18.008Z,0.9
2017-10-05T21:32:20.806Z,0.8
2017-10-05T21:34:16.674Z,1.2
2017-10-05T21:36:17.535Z,0.6
2017-10-05T21:38:17.387Z,0.9
2017-10-05T21:40:17.251Z,0.8
2017-10-05T21:42:17.064Z,0.6
2017-10-05T21:44:16.905Z,1.2
2017-10-05T21:46:17.781Z,0.7
2017-10-05T21:48:16.608Z,1
2017-10-05T21:50:18.451Z,1.2
2017-10-05T21:52:17.296Z,0.9
2017-10-05T21:54:17.152Z,0.9
2017-10-05T21:56:16.957Z,0.8
2017-10-05T21:58:16.840Z,1.1
2017-10-05T22:00:16.657Z,0.9
2017-10-05T22:02:17.504Z,1.7
2017-10-05T22:04:17.358Z,1.1
2017-10-05T22:06:17.167Z,0.6
2017-10-05T22:08:17.002Z,1
2017-10-05T22:10:17.869Z,1.2
2017-10-05T22:12:16.688Z,1.3
2017-10-05T22:14:17.532Z,0.9
2017-10-05T22:16:17.394Z,0.8
2017-10-05T22:18:18.190Z,1.2
2017-10-05T22:20:17.037Z,1.4
2017-10-05T22:22:16.895Z,1.1
2017-10-05T22:24:16.735Z,1.3
2017-10-05T22:26:17.567Z,0.9
2017-10-05T22:28:17.417Z,0.8
2017-10-05T22:30:21.222Z,1.7
2017-10-05T22:32:17.083Z,1.2
2017-10-05T22:34:20.907Z,0.9
2017-10-05T22:36:16.762Z,1.7
2017-10-05T22:38:16.585Z,1.2
2017-10-05T22:40:17.419Z,1.4
2017-10-05T22:42:17.293Z,1.3
2017-10-05T22:44:17.119Z,1
2017-10-05T22:46:16.972Z,1.2
2017-10-05T22:48:16.792Z,1.4
2017-10-05T22:50:16.623Z,1.4
2017-10-05T22:52:17.522Z,1.6
2017-10-05T22:54:21.318Z,1.4
2017-10-05T22:56:18.154Z,1.6
2017-10-05T22:58:17.038Z,1.4
2017-10-05T23:00:16.858Z,1.6
2017-10-05T23:02:16.713Z,1.9
2017-10-05T23:04:17.593Z,1.3
2017-10-05T23:06:17.431Z,1.3
2017-10-05T23:08:17.280Z,1.2
2017-10-05T23:10:17.142Z,1.3
2017-10-05T23:12:16.989Z,1.6
2017-10-05T23:14:16.878Z,1.5
2017-10-05T23:16:17.728Z,1.5
2017-10-05T23:18:17.554Z,1.2
2017-10-05T23:20:17.383Z,1.5
2017-10-05T23:22:17.243Z,1.4
2017-10-05T23:24:17.069Z,1.6
2017-10-05T23:26:17.892Z,1.9
2017-10-05T23:28:16.781Z,2
2017-10-05T23:30:16.606Z,1.1
2017-10-05T23:32:17.448Z,1.5
2017-10-05T23:34:17.326Z,1.6
2017-10-05T23:36:17.123Z,1.5
2017-10-05T23:38:16.950Z,1.8
2017-10-05T23:40:17.842Z,1.2
2017-10-05T23:42:16.659Z,1.4
2017-10-05T23:44:17.489Z,1.7
2017-10-05T23:46:17.373Z,1.5
2017-10-05T23:48:21.192Z,1.1
2017-10-05T23:50:17.033Z,1.1
2017-10-05T23:52:16.914Z,1.1
2017-10-05T23:54:16.747Z,1.3
2017-10-05T23:56:17.604Z,1.2
2017-10-05T23:58:17.490Z,1.8
